createdAt,value
2023-04-20T00:00:25.570Z,44.95
2023-04-20T00:02:54.406Z,44.79
2023-04-20T00:05:23.197Z,44.75
2023-04-20T00:07:51.652Z,43.80
2023-04-20T00:10:21.466Z,43.22
2023-04-20T00:12:49.925Z,44.19
2023-04-20T00:15:18.176Z,44.45
2023-04-20T00:17:46.524Z,46.04
2023-04-20T00:20:15.509Z,44.63
2023-04-20T00:22:43.960Z,43.31
2023-04-20T00:25:12.146Z,44.04
2023-04-20T00:27:41.873Z,45.72
2023-04-20T00:30:11.072Z,44.15
2023-04-20T00:32:39.370Z,44.07
2023-04-20T00:35:10.898Z,44.72
2023-04-20T00:37:58.745Z,42.91
2023-04-20T00:40:27.128Z,44.34
2023-04-20T00:42:57.078Z,44.33
2023-04-20T00:45:25.451Z,44.07
2023-04-20T00:47:54.078Z,43.27
2023-04-20T00:50:22.452Z,43.18
2023-04-20T00:52:51.004Z,44.20
2023-04-20T00:55:20.960Z,43.83
2023-04-20T00:57:49.898Z,44.84
2023-04-20T01:00:20.228Z,45.42
2023-04-20T01:02:48.534Z,45.27
2023-04-20T01:05:17.077Z,46.01
2023-04-20T01:07:45.892Z,46.87
2023-04-20T01:10:14.361Z,46.48
2023-04-20T01:12:43.393Z,47.38
2023-04-20T01:15:11.914Z,47.57
2023-04-20T01:17:41.519Z,47.62
2023-04-20T01:20:12.532Z,46.94
2023-04-20T01:22:46.721Z,46.49
2023-04-20T01:25:15.410Z,47.46
2023-04-20T01:27:43.820Z,47.66
2023-04-20T01:30:12.936Z,48.21
2023-04-20T01:32:41.930Z,47.42
2023-04-20T01:35:10.608Z,47.42
2023-04-20T01:37:39.167Z,47.10
2023-04-20T01:40:09.790Z,47.63
2023-04-20T01:42:38.109Z,47.01
2023-04-20T01:45:06.984Z,49.35
2023-04-20T01:47:35.803Z,47.33
2023-04-20T01:50:04.372Z,48.40
2023-04-20T01:52:32.634Z,48.21
2023-04-20T01:55:01.175Z,48.18
2023-04-20T01:57:30.837Z,48.69
2023-04-20T01:59:59.048Z,48.90
2023-04-20T02:02:27.690Z,49.24
2023-04-20T02:04:56.240Z,50.03
2023-04-20T02:07:24.543Z,50.22
2023-04-20T02:09:52.720Z,49.45
2023-04-20T02:12:20.968Z,49.75
2023-04-20T02:14:50.761Z,49.80
2023-04-20T02:17:19.688Z,50.43
2023-04-20T02:19:48.181Z,51.16
2023-04-20T02:22:16.453Z,51.08
2023-04-20T02:24:44.714Z,51.62
2023-04-20T02:27:13.046Z,52.28
2023-04-20T02:29:41.395Z,51.66
2023-04-20T02:32:11.178Z,52.22
2023-04-20T02:34:39.411Z,52.33
2023-04-20T02:37:07.558Z,53.05
2023-04-20T02:39:35.832Z,53.99
2023-04-20T02:42:04.069Z,53.75
2023-04-20T02:44:32.314Z,54.64
2023-04-20T02:47:00.487Z,54.94
2023-04-20T02:49:30.759Z,55.30
2023-04-20T02:51:59.028Z,56.05
2023-04-20T02:54:27.231Z,56.50
2023-04-20T02:56:57.797Z,56.94
2023-04-20T02:59:26.780Z,57.45
2023-04-20T03:01:55.010Z,57.12
2023-04-20T03:04:23.485Z,57.98
2023-04-20T03:06:53.614Z,58.50
2023-04-20T03:09:21.986Z,58.39
2023-04-20T03:11:50.509Z,59.55
2023-04-20T03:14:18.782Z,59.25
2023-04-20T03:16:47.681Z,59.19
2023-04-20T03:19:17.051Z,59.46
2023-04-20T03:21:50.997Z,60.04
2023-04-20T03:24:20.537Z,59.97
2023-04-20T03:26:48.928Z,59.84
2023-04-20T03:29:17.371Z,60.05
2023-04-20T03:31:46.014Z,59.30
2023-04-20T03:34:14.233Z,59.70
2023-04-20T03:36:42.546Z,59.57
2023-04-20T03:39:11.381Z,60.38
2023-04-20T03:41:41.022Z,60.44
2023-04-20T03:44:09.343Z,60.97
2023-04-20T03:46:37.605Z,61.15
2023-04-20T03:49:14.649Z,61.17
2023-04-20T03:51:42.932Z,60.78
2023-04-20T03:54:11.238Z,61.04
2023-04-20T03:56:40.741Z,60.75
2023-04-20T03:59:09.006Z,60.63
2023-04-20T04:01:37.490Z,61.34
2023-04-20T04:04:06.379Z,61.52
2023-04-20T04:06:34.750Z,61.38
2023-04-20T04:09:03.389Z,61.29
2023-04-20T04:11:31.681Z,62.13
2023-04-20T04:14:01.292Z,62.07
2023-04-20T04:16:29.780Z,61.99
2023-04-20T04:18:57.977Z,63.30
2023-04-20T04:21:27.698Z,63.03
2023-04-20T04:23:55.917Z,63.46
2023-04-20T04:26:24.867Z,63.46
2023-04-20T04:28:53.562Z,63.93
2023-04-20T04:31:37.386Z,64.67
2023-04-20T04:34:05.777Z,65.08
2023-04-20T04:36:34.211Z,64.77
2023-04-20T04:39:02.394Z,65.12
2023-04-20T04:41:30.828Z,65.20
2023-04-20T04:43:59.513Z,66.08
2023-04-20T04:46:28.594Z,65.59
2023-04-20T04:49:01.246Z,66.17
2023-04-20T04:51:29.852Z,66.56
2023-04-20T04:53:58.095Z,66.19
2023-04-20T04:56:26.837Z,66.69
2023-04-20T04:58:55.532Z,67.26
2023-04-20T05:01:23.769Z,67.67
2023-04-20T05:03:52.295Z,67.38
2023-04-20T05:06:22.051Z,67.47
2023-04-20T05:08:50.301Z,68.04
2023-04-20T05:11:18.587Z,67.68
2023-04-20T05:13:48.677Z,67.91
2023-04-20T05:16:17.781Z,69.04
2023-04-20T05:18:46.262Z,68.65
2023-04-20T05:21:15.163Z,69.02
2023-04-20T05:23:45.119Z,68.82
2023-04-20T05:26:13.370Z,68.84
2023-04-20T05:28:41.642Z,69.65
2023-04-20T05:31:09.950Z,69.40
2023-04-20T05:33:38.126Z,69.65
2023-04-20T05:36:09.609Z,69.37
2023-04-20T05:38:38.303Z,69.84
2023-04-20T05:41:08.017Z,69.46
2023-04-20T05:43:36.282Z,69.84
2023-04-20T05:46:04.861Z,70.23
2023-04-20T05:48:33.548Z,70.01
2023-04-20T05:51:02.092Z,72.43
2023-04-20T05:53:30.334Z,72.89
2023-04-20T05:55:58.774Z,73.87
2023-04-20T05:58:37.438Z,74.87
2023-04-20T06:01:06.876Z,75.13
2023-04-20T06:03:35.758Z,76.00
2023-04-20T06:06:04.612Z,77.78
2023-04-20T06:08:32.878Z,78.61
2023-04-20T06:11:01.514Z,79.61
2023-04-20T06:13:29.859Z,80.03
2023-04-20T06:15:59.460Z,80.19
2023-04-20T06:18:29.437Z,80.78
2023-04-20T06:20:58.063Z,81.61
2023-04-20T06:23:27.657Z,81.72
2023-04-20T06:25:56.083Z,82.35
2023-04-20T06:28:25.059Z,82.32
2023-04-20T06:30:54.099Z,82.40
2023-04-20T06:33:25.717Z,83.46
2023-04-20T06:35:54.733Z,82.78
2023-04-20T06:38:23.885Z,81.82
2023-04-20T06:40:52.459Z,81.46
2023-04-20T06:43:20.873Z,79.93
2023-04-20T06:45:49.193Z,80.55
2023-04-20T06:48:30.225Z,79.90
2023-04-20T06:51:01.914Z,80.49
2023-04-20T06:53:30.362Z,80.09
2023-04-20T06:55:59.128Z,80.02
2023-04-20T06:58:27.324Z,79.29
2023-04-20T07:00:55.628Z,78.18
2023-04-20T07:03:24.284Z,77.78
2023-04-20T07:05:52.819Z,76.84
2023-04-20T07:08:22.491Z,75.62
2023-04-20T07:10:50.826Z,76.02
2023-04-20T07:13:20.322Z,75.88
2023-04-20T07:15:50.646Z,75.67
2023-04-20T07:18:18.955Z,75.90
2023-04-20T07:20:47.437Z,74.95
2023-04-20T07:23:15.859Z,74.34
2023-04-20T07:25:45.400Z,74.09
2023-04-20T07:28:13.919Z,73.34
2023-04-20T07:30:42.124Z,73.26
2023-04-20T07:33:11.218Z,72.23
2023-04-20T07:35:39.773Z,71.29
2023-04-20T07:38:08.136Z,70.65
2023-04-20T07:40:36.693Z,70.00
2023-04-20T07:43:06.278Z,71.31
2023-04-20T07:45:34.751Z,70.79
2023-04-20T07:48:05.330Z,70.43
2023-04-20T07:50:33.920Z,70.15
2023-04-20T07:53:02.143Z,69.79
2023-04-20T07:55:30.324Z,69.22
2023-04-20T07:57:58.644Z,69.99
2023-04-20T08:00:28.285Z,70.51
2023-04-20T08:02:57.509Z,70.10
2023-04-20T08:05:26.416Z,70.27
2023-04-20T08:07:54.886Z,71.20
2023-04-20T08:10:23.143Z,71.81
2023-04-20T08:12:53.327Z,70.62
2023-04-20T08:15:21.653Z,70.47
2023-04-20T08:17:52.885Z,69.61
2023-04-20T08:20:21.596Z,70.72
2023-04-20T08:22:50.777Z,70.61
2023-04-20T08:25:19.376Z,69.44
2023-04-20T08:27:47.644Z,69.27
2023-04-20T08:30:16.429Z,68.82
2023-04-20T08:32:44.830Z,69.00
2023-04-20T08:35:14.493Z,68.80
2023-04-20T08:37:43.095Z,70.04
2023-04-20T08:40:11.908Z,69.88
2023-04-20T08:42:41.624Z,71.76
2023-04-20T08:45:11.305Z,72.07
2023-04-20T08:47:40.153Z,70.44
2023-04-20T08:50:09.654Z,70.10
2023-04-20T08:52:39.708Z,69.29
2023-04-20T08:55:08.452Z,70.29
2023-04-20T08:57:36.997Z,70.52
2023-04-20T09:00:07.793Z,69.76
2023-04-20T09:02:36.446Z,68.61
2023-04-20T09:05:06.102Z,70.44
2023-04-20T09:07:34.669Z,71.44
2023-04-20T09:10:04.615Z,71.99
2023-04-20T09:12:41.932Z,71.74
2023-04-20T09:15:11.515Z,74.17
2023-04-20T09:17:41.009Z,76.80
2023-04-20T09:20:11.152Z,79.96
2023-04-20T09:23:13.046Z,82.48
2023-04-20T09:25:43.600Z,84.94
2023-04-20T09:28:13.198Z,87.13
2023-04-20T09:30:42.565Z,90.17
2023-04-20T09:33:12.524Z,90.76
2023-04-20T09:35:41.969Z,90.16
2023-04-20T09:38:10.771Z,88.33
2023-04-20T09:40:39.253Z,88.56
2023-04-20T09:43:15.158Z,88.02
2023-04-20T09:45:46.739Z,86.91
2023-04-20T09:48:19.054Z,82.69
2023-04-20T09:50:49.976Z,69.84
2023-04-20T09:53:20.471Z,66.10
2023-04-20T09:55:49.556Z,63.02
2023-04-20T09:58:20.739Z,65.80
2023-04-20T10:00:49.616Z,65.25
2023-04-20T10:03:19.081Z,65.42
2023-04-20T10:05:47.557Z,67.72
2023-04-20T10:08:16.057Z,66.37
2023-04-20T10:10:45.644Z,65.75
2023-04-20T10:13:14.265Z,62.90
2023-04-20T10:15:44.194Z,60.76
2023-04-20T10:18:17.530Z,58.96
2023-04-20T10:20:46.501Z,57.90
2023-04-20T10:23:16.359Z,65.84
2023-04-20T10:25:47.382Z,66.53
2023-04-20T10:28:16.525Z,69.61
2023-04-20T10:30:55.050Z,71.72
2023-04-20T10:33:23.859Z,72.72
2023-04-20T10:35:55.124Z,72.58
2023-04-20T10:38:33.073Z,70.38
2023-04-20T10:41:07.030Z,69.63
2023-04-20T10:43:38.882Z,64.79
2023-04-20T10:46:15.714Z,55.49
2023-04-20T10:48:53.936Z,54.68
2023-04-20T10:51:22.439Z,57.52
2023-04-20T10:54:01.111Z,60.92
2023-04-20T10:56:37.237Z,62.72
2023-04-20T10:59:09.084Z,65.42
2023-04-20T11:01:38.950Z,65.36
2023-04-20T11:04:07.505Z,66.56
2023-04-20T11:06:36.186Z,66.37
2023-04-20T11:09:20.640Z,65.30
2023-04-20T11:11:59.044Z,65.81
2023-04-20T11:14:27.430Z,64.12
2023-04-20T11:16:57.110Z,60.36
2023-04-20T11:19:26.827Z,57.35
2023-04-20T11:21:55.125Z,53.09
2023-04-20T11:24:24.642Z,52.25
2023-04-20T11:26:54.515Z,46.68
2023-04-20T11:29:29.927Z,44.93
2023-04-20T11:32:00.004Z,47.96
2023-04-20T11:34:28.973Z,49.32
2023-04-20T11:36:57.308Z,48.82
2023-04-20T11:39:26.019Z,49.19
2023-04-20T11:41:54.539Z,46.60
2023-04-20T11:44:23.644Z,48.08
2023-04-20T11:46:53.282Z,50.11
2023-04-20T11:49:23.124Z,49.10
2023-04-20T11:51:53.103Z,49.79
2023-04-20T11:54:21.975Z,50.15
2023-04-20T11:56:51.647Z,54.38
2023-04-20T11:59:21.152Z,54.23
2023-04-20T12:01:49.774Z,47.88
2023-04-20T12:04:18.357Z,46.48
2023-04-20T12:06:48.253Z,45.91
2023-04-20T12:09:17.056Z,45.04
2023-04-20T12:11:45.556Z,43.97
2023-04-20T12:14:13.831Z,41.35
2023-04-20T12:16:42.148Z,38.82
2023-04-20T12:19:10.862Z,40.98
2023-04-20T12:21:39.187Z,41.70
2023-04-20T12:24:08.925Z,38.82
2023-04-20T12:26:38.659Z,41.41
2023-04-20T12:29:07.465Z,43.71
2023-04-20T12:31:36.363Z,48.62
2023-04-20T12:34:04.996Z,44.64
2023-04-20T12:36:35.078Z,45.16
2023-04-20T12:39:04.503Z,42.00
2023-04-20T12:41:34.570Z,43.99
2023-04-20T12:44:05.832Z,46.00
2023-04-20T12:46:35.699Z,46.67
2023-04-20T12:49:04.278Z,46.04
2023-04-20T12:51:35.594Z,46.55
2023-04-20T12:54:03.876Z,43.38
2023-04-20T12:56:32.113Z,46.31
2023-04-20T12:59:01.764Z,48.53
2023-04-20T13:01:30.164Z,49.61
2023-04-20T13:03:58.851Z,50.53
2023-04-20T13:06:27.916Z,43.79
2023-04-20T13:08:56.131Z,43.45
2023-04-20T13:11:26.014Z,44.46
2023-04-20T13:13:56.560Z,42.89
2023-04-20T13:16:26.893Z,39.64
2023-04-20T13:18:55.548Z,38.06
2023-04-20T13:21:24.132Z,37.35
2023-04-20T13:24:00.161Z,39.29
2023-04-20T13:26:28.560Z,38.96
2023-04-20T13:28:58.296Z,36.36
2023-04-20T13:31:27.975Z,36.01
2023-04-20T13:33:56.418Z,39.24
2023-04-20T13:36:25.066Z,44.15
2023-04-20T13:38:53.551Z,45.82
2023-04-20T13:41:22.032Z,48.85
2023-04-20T13:43:50.436Z,48.85
2023-04-20T13:46:19.855Z,49.09
2023-04-20T13:48:49.704Z,44.38
2023-04-20T13:51:17.945Z,39.76
2023-04-20T13:53:48.044Z,38.43
2023-04-20T13:56:16.376Z,37.11
2023-04-20T13:58:44.938Z,39.08
2023-04-20T14:01:14.196Z,39.62
2023-04-20T14:03:42.780Z,39.27
2023-04-20T14:06:12.914Z,37.42
2023-04-20T14:08:41.095Z,37.42
2023-04-20T14:11:09.459Z,39.19
2023-04-20T14:13:38.002Z,38.88
2023-04-20T14:16:09.395Z,39.48
2023-04-20T14:18:37.997Z,40.36
2023-04-20T14:21:06.456Z,42.01
2023-04-20T14:23:36.173Z,42.37
2023-04-20T14:26:04.538Z,43.86
2023-04-20T14:28:33.521Z,44.34
2023-04-20T14:31:02.875Z,45.31
2023-04-20T14:33:31.302Z,46.22
2023-04-20T14:35:59.551Z,45.15
2023-04-20T14:38:28.096Z,44.73
2023-04-20T14:40:57.811Z,45.34
2023-04-20T14:43:26.031Z,41.25
2023-04-20T14:45:55.225Z,40.57
2023-04-20T14:48:25.060Z,38.84
2023-04-20T14:50:54.157Z,39.61
2023-04-20T14:53:22.692Z,39.30
2023-04-20T14:55:51.761Z,42.09
2023-04-20T14:58:21.585Z,43.54
2023-04-20T15:00:50.306Z,44.74
2023-04-20T15:03:18.923Z,45.26
2023-04-20T15:05:48.039Z,45.86
2023-04-20T15:08:16.424Z,45.75
2023-04-20T15:10:45.538Z,47.44
2023-04-20T15:13:14.152Z,47.23
2023-04-20T15:15:48.713Z,46.72
2023-04-20T15:18:17.854Z,45.75
2023-04-20T15:20:47.398Z,45.56
2023-04-20T15:23:16.653Z,43.74
2023-04-20T15:25:47.468Z,43.44
2023-04-20T15:28:16.548Z,42.98
2023-04-20T15:30:47.876Z,42.60
2023-04-20T15:33:16.369Z,43.52
2023-04-20T15:35:45.781Z,43.17
2023-04-20T15:38:14.410Z,45.91
2023-04-20T15:40:42.851Z,47.22
2023-04-20T15:43:11.916Z,47.75
2023-04-20T15:45:41.292Z,48.69
2023-04-20T15:48:12.593Z,50.36
2023-04-20T15:50:41.089Z,50.76
2023-04-20T15:53:09.565Z,51.21
2023-04-20T15:55:39.137Z,51.57
2023-04-20T15:58:07.422Z,50.05
2023-04-20T16:00:36.644Z,49.46
2023-04-20T16:03:05.676Z,50.67
2023-04-20T16:05:36.012Z,50.91
2023-04-20T16:08:05.350Z,52.88
2023-04-20T16:10:34.303Z,53.08
2023-04-20T16:13:03.521Z,52.93
2023-04-20T16:15:31.882Z,52.52
2023-04-20T16:18:00.322Z,51.37
2023-04-20T16:20:29.111Z,50.80
2023-04-20T16:22:58.680Z,51.52
2023-04-20T16:25:28.314Z,50.94
2023-04-20T16:27:56.612Z,49.84
2023-04-20T16:30:24.886Z,49.57
2023-04-20T16:32:53.739Z,50.75
2023-04-20T16:35:24.046Z,50.75
2023-04-20T16:37:55.954Z,50.70
2023-04-20T16:40:26.293Z,51.12
2023-04-20T16:42:54.856Z,51.25
2023-04-20T16:45:23.362Z,52.66
2023-04-20T16:47:51.981Z,52.85
2023-04-20T16:50:20.495Z,53.67
2023-04-20T16:52:49.121Z,53.56
2023-04-20T16:55:17.502Z,53.52
2023-04-20T16:57:47.158Z,54.00
2023-04-20T17:00:16.019Z,54.77
2023-04-20T17:02:44.473Z,56.43
2023-04-20T17:05:13.191Z,58.56
2023-04-20T17:07:41.460Z,59.14
2023-04-20T17:10:10.020Z,60.32
2023-04-20T17:12:41.656Z,62.82
2023-04-20T17:15:12.393Z,64.09
2023-04-20T17:17:40.676Z,65.35
2023-04-20T17:20:09.735Z,67.66
2023-04-20T17:22:37.999Z,66.92
2023-04-20T17:25:07.864Z,66.69
2023-04-20T17:27:36.349Z,66.88
2023-04-20T17:30:05.369Z,69.67
2023-04-20T17:32:35.218Z,70.64
2023-04-20T17:35:04.255Z,71.98
2023-04-20T17:37:32.651Z,73.64
2023-04-20T17:40:01.361Z,74.43
2023-04-20T17:42:29.744Z,77.73
2023-04-20T17:44:58.174Z,78.63
2023-04-20T17:47:28.391Z,79.44
2023-04-20T17:49:59.761Z,79.48
2023-04-20T17:52:28.324Z,79.01
2023-04-20T17:54:56.762Z,80.60
2023-04-20T17:57:25.486Z,80.36
2023-04-20T17:59:53.759Z,80.67
2023-04-20T18:02:22.424Z,81.84
2023-04-20T18:04:51.266Z,83.56
2023-04-20T18:07:21.423Z,83.87
2023-04-20T18:09:51.486Z,85.53
2023-04-20T18:12:20.855Z,86.10
2023-04-20T18:14:49.315Z,86.51
2023-04-20T18:17:17.860Z,87.87
2023-04-20T18:19:46.608Z,87.11
2023-04-20T18:22:15.459Z,87.45
2023-04-20T18:24:45.145Z,89.17
2023-04-20T18:27:13.532Z,87.83
2023-04-20T18:29:41.867Z,86.31
2023-04-20T18:32:10.069Z,88.67
2023-04-20T18:34:38.496Z,88.92
2023-04-20T18:37:07.391Z,87.56
2023-04-20T18:39:35.609Z,87.25
2023-04-20T18:42:05.258Z,88.49
2023-04-20T18:44:33.490Z,88.80
2023-04-20T18:47:01.821Z,90.55
2023-04-20T18:49:30.577Z,90.92
2023-04-20T18:51:58.950Z,91.09
2023-04-20T18:54:27.568Z,90.30
2023-04-20T18:56:56.581Z,90.42
2023-04-20T18:59:26.108Z,90.40
2023-04-20T19:01:54.398Z,90.56
2023-04-20T19:04:23.102Z,90.89
2023-04-20T19:06:51.751Z,91.06
2023-04-20T19:09:20.303Z,89.90
2023-04-20T19:11:48.725Z,88.10
2023-04-20T19:14:17.085Z,87.50
2023-04-20T19:16:49.675Z,87.56
2023-04-20T19:19:22.733Z,86.62
2023-04-20T19:21:51.683Z,86.82
2023-04-20T19:24:20.925Z,85.86
2023-04-20T19:26:49.561Z,85.97
2023-04-20T19:29:17.980Z,86.29
2023-04-20T19:31:48.528Z,84.72
2023-04-20T19:34:18.667Z,84.15
2023-04-20T19:36:47.355Z,84.29
2023-04-20T19:39:17.244Z,83.70
2023-04-20T19:41:50.171Z,83.49
2023-04-20T19:44:20.274Z,83.79
2023-04-20T19:46:54.158Z,83.36
2023-04-20T19:49:23.638Z,83.15
2023-04-20T19:51:59.030Z,83.03
2023-04-20T19:54:30.528Z,81.83
2023-04-20T19:56:58.989Z,81.25
2023-04-20T19:59:29.954Z,81.01
2023-04-20T20:02:03.785Z,81.53
2023-04-20T20:04:37.962Z,81.79
2023-04-20T20:07:06.670Z,81.52
2023-04-20T20:09:35.065Z,81.51
2023-04-20T20:12:08.725Z,81.21
2023-04-20T20:14:38.320Z,81.04
2023-04-20T20:17:08.496Z,81.11
2023-04-20T20:19:36.817Z,80.81
2023-04-20T20:22:05.519Z,80.79
2023-04-20T20:24:34.470Z,81.35
2023-04-20T20:27:05.990Z,81.46
2023-04-20T20:29:35.391Z,81.77
2023-04-20T20:32:05.159Z,80.68
2023-04-20T20:34:35.365Z,80.98
2023-04-20T20:37:04.574Z,80.99
2023-04-20T20:39:33.272Z,81.00
2023-04-20T20:42:02.436Z,80.99
2023-04-20T20:44:33.354Z,81.21
2023-04-20T20:47:02.331Z,80.87
2023-04-20T20:49:32.083Z,81.75
2023-04-20T20:52:02.985Z,81.44
2023-04-20T20:54:31.463Z,81.01
2023-04-20T20:56:59.616Z,80.58
2023-04-20T20:59:28.702Z,80.59
2023-04-20T21:01:58.319Z,80.91
2023-04-20T21:04:27.275Z,80.51
2023-04-20T21:06:55.741Z,80.60
2023-04-20T21:09:25.415Z,80.23
2023-04-20T21:11:53.903Z,79.89
2023-04-20T21:14:22.516Z,80.59
2023-04-20T21:16:50.979Z,80.40
2023-04-20T21:19:20.023Z,80.86
2023-04-20T21:21:48.917Z,81.31
2023-04-20T21:24:18.097Z,81.47
2023-04-20T21:26:48.313Z,80.60
2023-04-20T21:29:17.039Z,80.57
2023-04-20T21:31:45.792Z,81.01
2023-04-20T21:34:14.218Z,81.59
2023-04-20T21:36:43.682Z,80.60
2023-04-20T21:39:12.140Z,80.70
2023-04-20T21:41:40.447Z,80.38
2023-04-20T21:44:11.189Z,79.96
2023-04-20T21:46:40.371Z,80.35
2023-04-20T21:49:09.790Z,79.54
2023-04-20T21:51:38.672Z,79.62
2023-04-20T21:54:06.896Z,79.76
2023-04-20T21:56:35.965Z,79.80
2023-04-20T21:59:06.047Z,80.23
2023-04-20T22:01:35.905Z,79.68
2023-04-20T22:04:05.118Z,80.01
2023-04-20T22:06:33.523Z,80.99
2023-04-20T22:09:01.787Z,80.78
2023-04-20T22:11:30.087Z,80.35
2023-04-20T22:13:58.381Z,80.32
2023-04-20T22:16:28.472Z,80.88
2023-04-20T22:18:58.461Z,80.84
2023-04-20T22:21:26.765Z,80.31
2023-04-20T22:23:55.364Z,80.55
2023-04-20T22:26:23.604Z,80.99
2023-04-20T22:28:51.943Z,80.92
2023-04-20T22:31:20.453Z,81.19
2023-04-20T22:33:49.005Z,81.06
2023-04-20T22:36:18.748Z,80.94
2023-04-20T22:38:47.170Z,81.33
2023-04-20T22:41:17.262Z,81.71
2023-04-20T22:43:45.925Z,83.34
2023-04-20T22:46:14.155Z,83.45
2023-04-20T22:48:42.418Z,84.07
2023-04-20T22:51:12.884Z,84.35
2023-04-20T22:53:42.616Z,84.48
2023-04-20T22:56:11.168Z,85.79
2023-04-20T22:58:39.472Z,86.49
2023-04-20T23:01:07.734Z,88.21
2023-04-20T23:03:36.135Z,89.27
2023-04-20T23:06:05.045Z,90.28
2023-04-20T23:08:33.452Z,90.89
2023-04-20T23:11:04.616Z,91.88
2023-04-20T23:13:33.176Z,93.55
2023-04-20T23:16:01.547Z,94.75
2023-04-20T23:18:30.065Z,94.95
2023-04-20T23:20:58.277Z,95.78
2023-04-20T23:23:26.558Z,98.26
2023-04-20T23:25:54.909Z,98.59
2023-04-20T23:28:24.614Z,100.00
2023-04-20T23:30:52.789Z,100.00
2023-04-20T23:33:20.958Z,100.00
2023-04-20T23:35:49.164Z,100.00
2023-04-20T23:38:18.062Z,100.00
2023-04-20T23:40:46.326Z,100.00
2023-04-20T23:43:14.504Z,100.00
2023-04-20T23:45:45.511Z,100.00
2023-04-20T23:48:13.873Z,100.00
2023-04-20T23:50:42.064Z,100.00
2023-04-20T23:53:10.329Z,100.00
2023-04-20T23:55:38.533Z,100.00
2023-04-20T23:58:06.764Z,100.00
